KORF/ORF METAR and TAF weather

Enter ICAO airport designator
Station Type Date Time Source
KORF METAR 2019/10/23 06:51 UTC NOAA

KORF 230651Z VRB03KT 10SM BKN070 17/15 A2987 RMK AO2 SLP116 T01720150


Station Type Date Time Source
KORF Decoded METAR 2019/10/23 06:51 UTC NOAA

NORFOLK INTERNATIONAL AIRPORT , VA, United States (KORF) 36-54N 076-12W 14M
Oct 23, 2019 - 02:51 AM EDT / 2019.10.23 0651 UTC
Wind: Variable at 3 MPH (3 KT):0
Visibility: 10 mile(s):0
Sky conditions: mostly cloudy
Temperature: 63.0 F (17.2 C)
Dew Point: 59.0 F (15.0 C)
Relative Humidity: 86%
Pressure (altimeter): 29.87 in. Hg (1011 hPa)
ob: KORF 230651Z VRB03KT 10SM BKN070 17/15 A2987 RMK AO2 SLP116 T01720150
cycle: 7

Station Type Date Time Source
KORF TAF 2019/10/23 07:15 UTC NOAA

TAF
AMD KORF 230713Z 2307/2406 VRB03KT P6SM SCT009 BKN070
FM231500 34008KT P6SM SKC
FM240000 00000KT P6SM SKC

Example: see airport list